Coopers, Louisiana
Current Conditions -  °F | °C
As of 8:58 PM on Monday 22 Dec 2014 (Local Time) from KPOE Reporting Station
Overcast Overcast  
Wind Chill: 64°   Ceiling: 1300
Heat Index: 64°   Visibility: 9mi
Dew Point: 62°   Wind: 8mph
Humidity: 92%   Direction: 210°SSW
Pressure: 29.66"   Gusts: NA
Location:  31.2063°N, 93.1344°W
Report Text: KPOE 230258Z AUTO 21007KT 9SM OVC013 18/17 A2966 RMK AO2 OVC V BKN SLP045 T01790166 52017
Loading
Personal Weather Stations






























Interactive Weather Map New forecast layout! Learn more

10-Day Weather Forecast

Advertisements
Track Severe Weather on mobile